sensor_id;sensor_type;location;lat;lon;timestamp;pressure;altitude;pressure_sealevel;temperature;humidity
68941;BME280;55982;51.476;7.552;2024-03-02T00:00:48;98321.16;;;8.49;100.00
68941;BME280;55982;51.476;7.552;2024-03-02T00:03:13;98325.06;;;8.57;100.00
68941;BME280;55982;51.476;7.552;2024-03-02T00:05:39;98327.75;;;8.56;100.00
68941;BME280;55982;51.476;7.552;2024-03-02T00:08:04;98323.31;;;8.58;100.00
68941;BME280;55982;51.476;7.552;2024-03-02T00:10:37;98319.84;;;8.57;100.00
68941;BME280;55982;51.476;7.552;2024-03-02T00:13:06;98324.94;;;8.60;100.00
68941;BME280;55982;51.476;7.552;2024-03-02T00:18:00;98313.88;;;8.72;100.00
68941;BME280;55982;51.476;7.552;2024-03-02T00:20:26;98320.88;;;8.72;100.00
68941;BME280;55982;51.476;7.552;2024-03-02T00:23:00;98325.41;;;8.68;100.00
68941;BME280;55982;51.476;7.552;2024-03-02T00:25:27;98326.47;;;8.64;100.00
68941;BME280;55982;51.476;7.552;2024-03-02T00:28:00;98333.50;;;8.62;100.00
68941;BME280;55982;51.476;7.552;2024-03-02T00:32:54;98332.28;;;8.69;100.00
68941;BME280;55982;51.476;7.552;2024-03-02T00:35:19;98335.81;;;8.68;100.00
68941;BME280;55982;51.476;7.552;2024-03-02T00:37:46;98341.78;;;8.70;100.00
68941;BME280;55982;51.476;7.552;2024-03-02T00:40:11;98330.91;;;8.79;100.00
68941;BME280;55982;51.476;7.552;2024-03-02T00:42:38;98323.63;;;8.86;100.00
68941;BME280;55982;51.476;7.552;2024-03-02T00:45:07;98317.56;;;8.85;100.00
68941;BME280;55982;51.476;7.552;2024-03-02T00:47:34;98315.75;;;8.87;100.00
68941;BME280;55982;51.476;7.552;2024-03-02T00:50:02;98314.25;;;8.82;100.00
68941;BME280;55982;51.476;7.552;2024-03-02T00:52:28;98309.22;;;8.79;100.00
68941;BME280;55982;51.476;7.552;2024-03-02T00:54:56;98312.97;;;8.90;100.00
68941;BME280;55982;51.476;7.552;2024-03-02T00:57:22;98308.22;;;8.81;100.00
68941;BME280;55982;51.476;7.552;2024-03-02T00:59:48;98308.06;;;8.84;100.00
68941;BME280;55982;51.476;7.552;2024-03-02T01:02:13;98299.63;;;8.79;100.00
68941;BME280;55982;51.476;7.552;2024-03-02T01:04:39;98309.88;;;8.82;100.00
68941;BME280;55982;51.476;7.552;2024-03-02T01:07:04;98303.75;;;9.00;100.00
68941;BME280;55982;51.476;7.552;2024-03-02T01:09:29;98309.88;;;8.99;100.00
68941;BME280;55982;51.476;7.552;2024-03-02T01:11:55;98309.41;;;8.91;100.00
68941;BME280;55982;51.476;7.552;2024-03-02T01:14:20;98302.69;;;8.87;100.00
68941;BME280;55982;51.476;7.552;2024-03-02T01:16:45;98293.94;;;8.88;100.00
68941;BME280;55982;51.476;7.552;2024-03-02T01:19:10;98296.47;;;8.90;100.00
68941;BME280;55982;51.476;7.552;2024-03-02T01:21:36;98288.19;;;8.82;100.00
68941;BME280;55982;51.476;7.552;2024-03-02T01:24:01;98276.94;;;8.81;100.00
68941;BME280;55982;51.476;7.552;2024-03-02T01:26:26;98288.72;;;8.88;100.00
68941;BME280;55982;51.476;7.552;2024-03-02T01:28:51;98285.03;;;8.92;100.00
68941;BME280;55982;51.476;7.552;2024-03-02T01:31:16;98274.78;;;8.89;100.00
68941;BME280;55982;51.476;7.552;2024-03-02T01:33:42;98276.28;;;8.93;100.00
68941;BME280;55982;51.476;7.552;2024-03-02T01:36:07;98265.72;;;8.96;100.00
68941;BME280;55982;51.476;7.552;2024-03-02T01:38:33;98265.22;;;9.05;100.00
68941;BME280;55982;51.476;7.552;2024-03-02T01:40:58;98265.78;;;9.12;100.00
68941;BME280;55982;51.476;7.552;2024-03-02T01:43:24;98263.06;;;9.13;100.00
68941;BME280;55982;51.476;7.552;2024-03-02T01:45:49;98273.19;;;9.19;100.00
68941;BME280;55982;51.476;7.552;2024-03-02T01:48:14;98269.34;;;9.27;100.00
68941;BME280;55982;51.476;7.552;2024-03-02T01:50:39;98278.09;;;9.26;100.00
68941;BME280;55982;51.476;7.552;2024-03-02T01:53:05;98269.88;;;9.33;100.00
68941;BME280;55982;51.476;7.552;2024-03-02T01:55:30;98277.56;;;9.19;100.00
68941;BME280;55982;51.476;7.552;2024-03-02T01:57:56;98260.00;;;9.38;100.00
68941;BME280;55982;51.476;7.552;2024-03-02T02:00:21;98272.56;;;9.32;100.00
68941;BME280;55982;51.476;7.552;2024-03-02T02:02:49;98255.78;;;9.36;100.00
68941;BME280;55982;51.476;7.552;2024-03-02T02:05:15;98264.16;;;9.42;100.00
68941;BME280;55982;51.476;7.552;2024-03-02T02:07:41;98245.13;;;9.40;100.00
68941;BME280;55982;51.476;7.552;2024-03-02T02:10:07;98252.50;;;9.32;100.00
68941;BME280;55982;51.476;7.552;2024-03-02T02:12:32;98244.53;;;9.35;100.00
68941;BME280;55982;51.476;7.552;2024-03-02T02:14:57;98252.19;;;9.38;100.00
68941;BME280;55982;51.476;7.552;2024-03-02T02:17:23;98243.44;;;9.55;100.00
68941;BME280;55982;51.476;7.552;2024-03-02T02:19:48;98248.84;;;9.52;100.00
68941;BME280;55982;51.476;7.552;2024-03-02T02:22:13;98244.63;;;9.49;100.00
68941;BME280;55982;51.476;7.552;2024-03-02T02:24:41;98254.56;;;9.43;100.00
68941;BME280;55982;51.476;7.552;2024-03-02T02:27:07;98242.38;;;9.43;100.00
68941;BME280;55982;51.476;7.552;2024-03-02T02:29:33;98233.81;;;9.40;100.00
68941;BME280;55982;51.476;7.552;2024-03-02T02:31:58;98244.25;;;9.40;100.00
68941;BME280;55982;51.476;7.552;2024-03-02T02:34:23;98238.78;;;9.29;100.00
68941;BME280;55982;51.476;7.552;2024-03-02T02:36:48;98252.91;;;9.24;100.00
68941;BME280;55982;51.476;7.552;2024-03-02T02:39:15;98244.94;;;9.28;100.00
68941;BME280;55982;51.476;7.552;2024-03-02T02:41:40;98248.47;;;9.27;100.00
68941;BME280;55982;51.476;7.552;2024-03-02T02:44:05;98239.00;;;9.24;100.00
68941;BME280;55982;51.476;7.552;2024-03-02T02:46:31;98248.19;;;9.15;100.00
68941;BME280;55982;51.476;7.552;2024-03-02T02:48:56;98238.66;;;9.14;100.00
68941;BME280;55982;51.476;7.552;2024-03-02T02:51:21;98238.31;;;9.05;100.00
68941;BME280;55982;51.476;7.552;2024-03-02T02:53:47;98234.09;;;9.02;100.00
68941;BME280;55982;51.476;7.552;2024-03-02T02:56:12;98231.94;;;9.10;100.00
68941;BME280;55982;51.476;7.552;2024-03-02T02:58:37;98241.44;;;9.11;100.00
68941;BME280;55982;51.476;7.552;2024-03-02T03:01:02;98239.63;;;8.96;100.00
68941;BME280;55982;51.476;7.552;2024-03-02T03:03:28;98226.28;;;9.02;100.00
68941;BME280;55982;51.476;7.552;2024-03-02T03:05:54;98234.78;;;9.06;100.00
68941;BME280;55982;51.476;7.552;2024-03-02T03:08:19;98233.78;;;9.08;100.00
68941;BME280;55982;51.476;7.552;2024-03-02T03:10:44;98244.38;;;9.05;100.00
68941;BME280;55982;51.476;7.552;2024-03-02T03:13:10;98234.78;;;9.06;100.00
68941;BME280;55982;51.476;7.552;2024-03-02T03:15:35;98234.09;;;9.02;100.00
68941;BME280;55982;51.476;7.552;2024-03-02T03:18:04;98237.31;;;9.07;100.00
68941;BME280;55982;51.476;7.552;2024-03-02T03:20:29;98237.94;;;8.95;100.00
68941;BME280;55982;51.476;7.552;2024-03-02T03:22:54;98246.53;;;8.97;100.00
68941;BME280;55982;51.476;7.552;2024-03-02T03:25:20;98241.13;;;8.85;100.00
68941;BME280;55982;51.476;7.552;2024-03-02T03:27:45;98242.09;;;8.82;100.00
68941;BME280;55982;51.476;7.552;2024-03-02T03:30:11;98237.38;;;8.73;100.00
68941;BME280;55982;51.476;7.552;2024-03-02T03:32:36;98243.34;;;8.75;100.00
68941;BME280;55982;51.476;7.552;2024-03-02T03:35:02;98237.75;;;8.66;100.00
68941;BME280;55982;51.476;7.552;2024-03-02T03:37:27;98238.28;;;8.55;100.00
68941;BME280;55982;51.476;7.552;2024-03-02T03:39:57;98237.75;;;8.66;100.00
68941;BME280;55982;51.476;7.552;2024-03-02T03:42:22;98245.31;;;8.70;100.00
68941;BME280;55982;51.476;7.552;2024-03-02T03:44:48;98251.31;;;8.72;100.00
68941;BME280;55982;51.476;7.552;2024-03-02T03:47:13;98244.25;;;8.74;100.00
68941;BME280;55982;51.476;7.552;2024-03-02T03:49:38;98250.88;;;8.64;100.00
68941;BME280;55982;51.476;7.552;2024-03-02T03:52:03;98245.97;;;8.58;100.00
68941;BME280;55982;51.476;7.552;2024-03-02T03:54:29;98252.25;;;8.54;100.00
68941;BME280;55982;51.476;7.552;2024-03-02T03:56:54;98255.47;;;8.59;100.00
68941;BME280;55982;51.476;7.552;2024-03-02T03:59:19;98250.50;;;8.55;100.00
68941;BME280;55982;51.476;7.552;2024-03-02T04:01:44;98249.66;;;8.54;100.00
68941;BME280;55982;51.476;7.552;2024-03-02T04:04:10;98250.72;;;8.50;100.00
68941;BME280;55982;51.476;7.552;2024-03-02T04:06:35;98252.63;;;8.64;100.00
68941;BME280;55982;51.476;7.552;2024-03-02T04:09:00;98259.69;;;8.62;100.00
68941;BME280;55982;51.476;7.552;2024-03-02T04:11:26;98262.75;;;8.70;100.00
68941;BME280;55982;51.476;7.552;2024-03-02T04:13:51;98256.38;;;8.75;100.00
68941;BME280;55982;51.476;7.552;2024-03-02T04:16:16;98264.66;;;8.83;100.00
68941;BME280;55982;51.476;7.552;2024-03-02T04:18:41;98252.22;;;8.88;100.00
68941;BME280;55982;51.476;7.552;2024-03-02T04:21:07;98246.84;;;8.91;100.00
68941;BME280;55982;51.476;7.552;2024-03-02T04:23:32;98244.84;;;8.96;100.00
68941;BME280;55982;51.476;7.552;2024-03-02T04:25:57;98248.53;;;8.92;100.00
68941;BME280;55982;51.476;7.552;2024-03-02T04:28:22;98247.00;;;8.88;100.00
68941;BME280;55982;51.476;7.552;2024-03-02T04:30:48;98255.06;;;8.84;100.00
68941;BME280;55982;51.476;7.552;2024-03-02T04:33:13;98258.59;;;8.83;100.00
68941;BME280;55982;51.476;7.552;2024-03-02T04:35:38;98261.13;;;8.84;100.00
68941;BME280;55982;51.476;7.552;2024-03-02T04:38:04;98260.59;;;8.78;100.00
68941;BME280;55982;51.476;7.552;2024-03-02T04:40:29;98263.75;;;8.67;100.00
68941;BME280;55982;51.476;7.552;2024-03-02T04:42:54;98263.44;;;8.73;100.00
68941;BME280;55982;51.476;7.552;2024-03-02T04:45:19;98263.56;;;8.70;100.00
68941;BME280;55982;51.476;7.552;2024-03-02T04:47:45;98264.59;;;8.68;100.00
68941;BME280;55982;51.476;7.552;2024-03-02T04:50:10;98262.22;;;8.63;100.00
68941;BME280;55982;51.476;7.552;2024-03-02T04:52:35;98268.66;;;8.73;100.00
68941;BME280;55982;51.476;7.552;2024-03-02T04:55:01;98262.75;;;8.70;100.00
68941;BME280;55982;51.476;7.552;2024-03-02T04:57:42;98278.91;;;8.59;100.00
68941;BME280;55982;51.476;7.552;2024-03-02T05:00:07;98262.38;;;8.60;100.00
68941;BME280;55982;51.476;7.552;2024-03-02T05:02:34;98268.56;;;8.58;100.00
68941;BME280;55982;51.476;7.552;2024-03-02T05:04:59;98269.25;;;8.61;100.00
68941;BME280;55982;51.476;7.552;2024-03-02T05:07:24;98267.72;;;8.57;100.00
68941;BME280;55982;51.476;7.552;2024-03-02T05:09:49;98275.78;;;8.53;100.00
68941;BME280;55982;51.476;7.552;2024-03-02T05:12:15;98274.09;;;8.52;100.00
68941;BME280;55982;51.476;7.552;2024-03-02T05:14:59;98281.22;;;8.48;100.00
68941;BME280;55982;51.476;7.552;2024-03-02T05:17:24;98282.28;;;8.44;100.00
68941;BME280;55982;51.476;7.552;2024-03-02T05:19:49;98282.44;;;8.41;100.00
68941;BME280;55982;51.476;7.552;2024-03-02T05:22:15;98294.84;;;8.36;100.00
68941;BME280;55982;51.476;7.552;2024-03-02T05:24:40;98303.22;;;8.24;100.00
68941;BME280;55982;51.476;7.552;2024-03-02T05:27:05;98299.09;;;8.20;100.00
68941;BME280;55982;51.476;7.552;2024-03-02T05:29:32;98302.47;;;8.22;100.00
68941;BME280;55982;51.476;7.552;2024-03-02T05:31:57;98307.97;;;8.16;100.00
68941;BME280;55982;51.476;7.552;2024-03-02T05:34:22;98314.31;;;8.10;100.00
68941;BME280;55982;51.476;7.552;2024-03-02T05:36:48;98312.34;;;7.97;100.00
68941;BME280;55982;51.476;7.552;2024-03-02T05:39:13;98312.91;;;7.85;100.00
68941;BME280;55982;51.476;7.552;2024-03-02T05:41:38;98318.25;;;7.82;100.00
68941;BME280;55982;51.476;7.552;2024-03-02T05:44:04;98312.91;;;7.85;100.00
68941;BME280;55982;51.476;7.552;2024-03-02T05:46:29;98309.38;;;7.86;100.00
68941;BME280;55982;51.476;7.552;2024-03-02T05:48:54;98321.50;;;7.87;100.00
68941;BME280;55982;51.476;7.552;2024-03-02T05:51:20;98317.69;;;7.94;100.00
68941;BME280;55982;51.476;7.552;2024-03-02T05:53:45;98311.34;;;7.99;100.00
68941;BME280;55982;51.476;7.552;2024-03-02T05:56:10;98312.63;;;7.91;100.00
68941;BME280;55982;51.476;7.552;2024-03-02T05:58:37;98316.28;;;7.87;100.00
68941;BME280;55982;51.476;7.552;2024-03-02T06:01:14;98323.31;;;7.85;100.00
68941;BME280;55982;51.476;7.552;2024-03-02T06:03:40;98317.00;;;7.72;100.00
68941;BME280;55982;51.476;7.552;2024-03-02T06:06:05;98313.81;;;7.65;100.00
68941;BME280;55982;51.476;7.552;2024-03-02T06:08:31;98318.53;;;7.76;100.00
68941;BME280;55982;51.476;7.552;2024-03-02T06:10:56;98320.38;;;7.74;100.00
68941;BME280;55982;51.476;7.552;2024-03-02T06:13:22;98316.63;;;7.79;100.00
68941;BME280;55982;51.476;7.552;2024-03-02T06:15:47;98326.81;;;7.84;100.00
68941;BME280;55982;51.476;7.552;2024-03-02T06:18:12;98320.28;;;7.75;100.00
68941;BME280;55982;51.476;7.552;2024-03-02T06:20:37;98324.66;;;7.75;100.00
68941;BME280;55982;51.476;7.552;2024-03-02T06:23:03;98333.00;;;7.63;100.00
68941;BME280;55982;51.476;7.552;2024-03-02T06:25:28;98321.00;;;7.60;100.00
68941;BME280;55982;51.476;7.552;2024-03-02T06:27:54;98329.34;;;7.67;100.00
68941;BME280;55982;51.476;7.552;2024-03-02T06:30:19;98327.78;;;7.63;100.00
68941;BME280;55982;51.476;7.552;2024-03-02T06:32:44;98323.38;;;7.65;100.00
68941;BME280;55982;51.476;7.552;2024-03-02T06:35:09;98331.59;;;7.56;100.00
68941;BME280;55982;51.476;7.552;2024-03-02T06:37:35;98325.84;;;7.68;100.00
68941;BME280;55982;51.476;7.552;2024-03-02T06:40:01;98328.44;;;7.68;100.00
68941;BME280;55982;51.476;7.552;2024-03-02T06:42:26;98334.56;;;7.67;100.00
68941;BME280;55982;51.476;7.552;2024-03-02T06:44:51;98318.25;;;7.82;100.00
68941;BME280;55982;51.476;7.552;2024-03-02T06:47:16;98328.53;;;7.85;100.00
68941;BME280;55982;51.476;7.552;2024-03-02T06:49:42;98333.44;;;7.91;100.00
68941;BME280;55982;51.476;7.552;2024-03-02T06:52:08;98340.06;;;7.98;100.00
68941;BME280;55982;51.476;7.552;2024-03-02T06:54:33;98343.44;;;8.00;100.00
68941;BME280;55982;51.476;7.552;2024-03-02T06:56:59;98337.66;;;8.12;100.00
68941;BME280;55982;51.476;7.552;2024-03-02T06:59:25;98343.56;;;8.34;100.00
68941;BME280;55982;51.476;7.552;2024-03-02T07:01:50;98341.03;;;8.32;100.00
68941;BME280;55982;51.476;7.552;2024-03-02T07:04:15;98341.88;;;8.33;100.00
68941;BME280;55982;51.476;7.552;2024-03-02T07:06:40;98343.72;;;8.31;100.00
68941;BME280;55982;51.476;7.552;2024-03-02T07:09:06;98339.50;;;8.28;100.00
68941;BME280;55982;51.476;7.552;2024-03-02T07:11:35;98351.00;;;8.23;100.00
68941;BME280;55982;51.476;7.552;2024-03-02T07:14:01;98352.75;;;8.22;100.00
68941;BME280;55982;51.476;7.552;2024-03-02T07:16:26;98363.00;;;8.27;100.00
68941;BME280;55982;51.476;7.552;2024-03-02T07:18:58;98357.44;;;8.35;100.00
68941;BME280;55982;51.476;7.552;2024-03-02T07:21:24;98359.19;;;8.34;100.00
68941;BME280;55982;51.476;7.552;2024-03-02T07:23:49;98359.97;;;8.36;100.00
68941;BME280;55982;51.476;7.552;2024-03-02T07:26:15;98359.47;;;8.47;100.00
68941;BME280;55982;51.476;7.552;2024-03-02T07:28:41;98360.41;;;8.80;100.00
68941;BME280;55982;51.476;7.552;2024-03-02T07:31:07;98354.34;;;9.31;100.00
68941;BME280;55982;51.476;7.552;2024-03-02T07:33:32;98360.13;;;9.70;100.00
68941;BME280;55982;51.476;7.552;2024-03-02T07:35:58;98356.72;;;10.00;100.00
68941;BME280;55982;51.476;7.552;2024-03-02T07:38:24;98359.28;;;10.33;100.00
68941;BME280;55982;51.476;7.552;2024-03-02T07:40:50;98366.50;;;10.59;100.00
68941;BME280;55982;51.476;7.552;2024-03-02T07:43:18;98358.75;;;10.58;100.00
68941;BME280;55982;51.476;7.552;2024-03-02T07:45:47;98363.16;;;11.17;100.00
68941;BME280;55982;51.476;7.552;2024-03-02T07:48:12;98367.69;;;11.57;100.00
68941;BME280;55982;51.476;7.552;2024-03-02T07:50:38;98372.47;;;12.35;100.00
68941;BME280;55982;51.476;7.552;2024-03-02T07:53:04;98367.69;;;12.95;100.00
68941;BME280;55982;51.476;7.552;2024-03-02T07:55:29;98363.38;;;12.67;100.00
68941;BME280;55982;51.476;7.552;2024-03-02T07:57:55;98358.63;;;12.99;100.00
68941;BME280;55982;51.476;7.552;2024-03-02T08:00:20;98365.81;;;12.97;100.00
68941;BME280;55982;51.476;7.552;2024-03-02T08:02:46;98363.69;;;13.02;100.00
68941;BME280;55982;51.476;7.552;2024-03-02T08:05:11;98373.16;;;13.31;100.00
68941;BME280;55982;51.476;7.552;2024-03-02T08:07:36;98376.41;;;13.72;100.00
68941;BME280;55982;51.476;7.552;2024-03-02T08:10:02;98382.22;;;13.77;100.00
68941;BME280;55982;51.476;7.552;2024-03-02T08:12:27;98380.41;;;13.65;100.00
68941;BME280;55982;51.476;7.552;2024-03-02T08:14:52;98383.53;;;13.45;100.00
68941;BME280;55982;51.476;7.552;2024-03-02T08:17:18;98389.69;;;13.83;100.00
68941;BME280;55982;51.476;7.552;2024-03-02T08:19:43;98389.44;;;14.11;100.00
68941;BME280;55982;51.476;7.552;2024-03-02T08:22:09;98391.06;;;14.50;100.00
68941;BME280;55982;51.476;7.552;2024-03-02T08:24:34;98388.34;;;14.26;100.00
68941;BME280;55982;51.476;7.552;2024-03-02T08:27:00;98393.00;;;14.10;100.00
68941;BME280;55982;51.476;7.552;2024-03-02T08:29:26;98381.00;;;14.68;100.00
68941;BME280;55982;51.476;7.552;2024-03-02T08:31:51;98388.47;;;14.37;99.40
68941;BME280;55982;51.476;7.552;2024-03-02T08:34:16;98391.94;;;14.98;95.64
68941;BME280;55982;51.476;7.552;2024-03-02T08:36:41;98387.97;;;15.27;93.09
68941;BME280;55982;51.476;7.552;2024-03-02T08:39:09;98382.28;;;14.62;94.34
68941;BME280;55982;51.476;7.552;2024-03-02T08:41:41;98384.81;;;15.22;89.80
68941;BME280;55982;51.476;7.552;2024-03-02T08:44:08;98390.03;;;15.91;86.02
68941;BME280;55982;51.476;7.552;2024-03-02T08:46:33;98394.59;;;16.67;84.06
68941;BME280;55982;51.476;7.552;2024-03-02T08:48:58;98402.28;;;16.14;77.86
68941;BME280;55982;51.476;7.552;2024-03-02T08:51:24;98403.94;;;15.82;78.48
68941;BME280;55982;51.476;7.552;2024-03-02T08:53:51;98402.38;;;14.63;87.32
68941;BME280;55982;51.476;7.552;2024-03-02T08:56:16;98418.19;;;15.10;86.13
68941;BME280;55982;51.476;7.552;2024-03-02T08:58:42;98413.88;;;15.33;85.35
68941;BME280;55982;51.476;7.552;2024-03-02T09:01:09;98415.88;;;15.53;81.52
68941;BME280;55982;51.476;7.552;2024-03-02T09:03:35;98421.88;;;15.55;81.43
68941;BME280;55982;51.476;7.552;2024-03-02T09:06:00;98420.09;;;15.32;84.61
68941;BME280;55982;51.476;7.552;2024-03-02T09:08:26;98414.66;;;15.46;82.64
68941;BME280;55982;51.476;7.552;2024-03-02T09:10:51;98418.38;;;16.11;77.48
68941;BME280;55982;51.476;7.552;2024-03-02T09:13:16;98421.47;;;16.72;74.67
68941;BME280;55982;51.476;7.552;2024-03-02T09:15:42;98412.06;;;16.90;71.08
68941;BME280;55982;51.476;7.552;2024-03-02T09:18:07;98420.31;;;16.54;72.63
68941;BME280;55982;51.476;7.552;2024-03-02T09:20:32;98412.75;;;16.49;70.98
68941;BME280;55982;51.476;7.552;2024-03-02T09:22:58;98416.28;;;16.92;72.88
68941;BME280;55982;51.476;7.552;2024-03-02T09:25:23;98420.03;;;16.45;72.25
68941;BME280;55982;51.476;7.552;2024-03-02T09:27:48;98416.94;;;17.37;70.57
68941;BME280;55982;51.476;7.552;2024-03-02T09:30:13;98410.06;;;17.14;69.96
68941;BME280;55982;51.476;7.552;2024-03-02T09:32:39;98407.03;;;17.50;65.94
68941;BME280;55982;51.476;7.552;2024-03-02T09:35:04;98403.41;;;17.19;65.40
68941;BME280;55982;51.476;7.552;2024-03-02T09:37:29;98407.03;;;17.50;65.55
68941;BME280;55982;51.476;7.552;2024-03-02T09:39:55;98407.38;;;17.25;66.12
68941;BME280;55982;51.476;7.552;2024-03-02T09:42:20;98412.25;;;17.09;67.87
68941;BME280;55982;51.476;7.552;2024-03-02T09:44:46;98413.44;;;16.18;72.11
68941;BME280;55982;51.476;7.552;2024-03-02T09:47:12;98403.03;;;16.50;71.08
68941;BME280;55982;51.476;7.552;2024-03-02T09:49:37;98407.38;;;17.25;68.39
68941;BME280;55982;51.476;7.552;2024-03-02T09:52:02;98408.63;;;17.42;66.86
68941;BME280;55982;51.476;7.552;2024-03-02T09:54:28;98413.22;;;17.60;65.62
68941;BME280;55982;51.476;7.552;2024-03-02T09:56:53;98405.53;;;17.98;64.94
68941;BME280;55982;51.476;7.552;2024-03-02T09:59:19;98404.34;;;18.82;61.96
68941;BME280;55982;51.476;7.552;2024-03-02T10:01:58;98406.25;;;18.61;60.16
68941;BME280;55982;51.476;7.552;2024-03-02T10:04:25;98411.78;;;19.26;58.65
68941;BME280;55982;51.476;7.552;2024-03-02T10:06:50;98408.03;;;19.29;56.79
68941;BME280;55982;51.476;7.552;2024-03-02T10:09:26;98409.00;;;18.50;59.90
68941;BME280;55982;51.476;7.552;2024-03-02T10:11:52;98409.00;;;18.50;60.17
68941;BME280;55982;51.476;7.552;2024-03-02T10:14:17;98405.78;;;18.46;59.37
68941;BME280;55982;51.476;7.552;2024-03-02T10:16:43;98411.59;;;18.80;58.81
68941;BME280;55982;51.476;7.552;2024-03-02T10:21:40;98397.38;;;18.90;59.75
68941;BME280;55982;51.476;7.552;2024-03-02T10:24:08;98404.16;;;19.52;58.87
68941;BME280;55982;51.476;7.552;2024-03-02T10:26:33;98406.00;;;18.83;56.93
68941;BME280;55982;51.476;7.552;2024-03-02T10:28:58;98407.22;;;18.29;57.86
68941;BME280;55982;51.476;7.552;2024-03-02T10:31:24;98390.63;;;18.67;59.02
68941;BME280;55982;51.476;7.552;2024-03-02T10:33:52;98391.53;;;18.96;56.84
68941;BME280;55982;51.476;7.552;2024-03-02T10:36:18;98400.06;;;19.67;56.61
68941;BME280;55982;51.476;7.552;2024-03-02T10:38:43;98392.38;;;18.17;57.32
68941;BME280;55982;51.476;7.552;2024-03-02T10:41:09;98388.47;;;19.01;58.00
68941;BME280;55982;51.476;7.552;2024-03-02T10:43:34;98392.69;;;19.51;55.37
68941;BME280;55982;51.476;7.552;2024-03-02T10:46:00;98399.84;;;20.06;54.65
68941;BME280;55982;51.476;7.552;2024-03-02T10:48:26;98403.19;;;20.08;53.88
68941;BME280;55982;51.476;7.552;2024-03-02T10:50:52;98395.28;;;20.90;52.65
68941;BME280;55982;51.476;7.552;2024-03-02T10:53:18;98400.50;;;21.09;50.90
68941;BME280;55982;51.476;7.552;2024-03-02T10:55:43;98394.50;;;20.26;51.59
68941;BME280;55982;51.476;7.552;2024-03-02T10:58:09;98398.28;;;18.21;54.72
68941;BME280;55982;51.476;7.552;2024-03-02T11:00:37;98386.25;;;18.07;56.25
68941;BME280;55982;51.476;7.552;2024-03-02T11:03:06;98396.66;;;18.79;55.05
68941;BME280;55982;51.476;7.552;2024-03-02T11:05:36;98381.72;;;17.98;55.74
68941;BME280;55982;51.476;7.552;2024-03-02T11:08:02;98384.59;;;18.16;56.06
68941;BME280;55982;51.476;7.552;2024-03-02T11:10:34;98385.97;;;19.28;54.35
68941;BME280;55982;51.476;7.552;2024-03-02T11:13:02;98387.44;;;19.97;53.48
68941;BME280;55982;51.476;7.552;2024-03-02T11:15:27;98383.00;;;19.69;52.64
68941;BME280;55982;51.476;7.552;2024-03-02T11:17:52;98384.03;;;19.11;52.86
68941;BME280;55982;51.476;7.552;2024-03-02T11:20:18;98384.72;;;19.51;52.32
68941;BME280;55982;51.476;7.552;2024-03-02T11:22:45;98384.41;;;18.97;53.52
68941;BME280;55982;51.476;7.552;2024-03-02T11:25:23;98390.28;;;18.42;54.64
68941;BME280;55982;51.476;7.552;2024-03-02T11:32:55;98375.13;;;20.43;51.04
68941;BME280;55982;51.476;7.552;2024-03-02T11:35:21;98375.25;;;20.68;50.86
68941;BME280;55982;51.476;7.552;2024-03-02T11:37:46;98378.34;;;20.37;51.19
68941;BME280;55982;51.476;7.552;2024-03-02T11:40:11;98359.97;;;20.53;49.70
68941;BME280;55982;51.476;7.552;2024-03-02T11:42:37;98374.22;;;20.52;50.39
68941;BME280;55982;51.476;7.552;2024-03-02T11:45:02;98368.41;;;20.66;50.09
68941;BME280;55982;51.476;7.552;2024-03-02T11:47:30;98363.34;;;21.60;48.65
68941;BME280;55982;51.476;7.552;2024-03-02T11:49:56;98363.66;;;21.57;47.42
68941;BME280;55982;51.476;7.552;2024-03-02T11:52:21;98372.31;;;20.89;47.94
68941;BME280;55982;51.476;7.552;2024-03-02T11:54:47;98369.91;;;20.51;50.44
68941;BME280;55982;51.476;7.552;2024-03-02T11:57:19;98361.22;;;20.76;49.76
68941;BME280;55982;51.476;7.552;2024-03-02T11:59:47;98378.34;;;19.90;50.19
68941;BME280;55982;51.476;7.552;2024-03-02T12:02:16;98357.81;;;19.92;51.26
68941;BME280;55982;51.476;7.552;2024-03-02T12:04:45;98371.59;;;20.15;51.25
68941;BME280;55982;51.476;7.552;2024-03-02T12:07:10;98359.75;;;19.44;51.63
68941;BME280;55982;51.476;7.552;2024-03-02T12:09:36;98360.94;;;19.78;52.81
68941;BME280;55982;51.476;7.552;2024-03-02T12:12:02;98349.28;;;19.98;51.01
68941;BME280;55982;51.476;7.552;2024-03-02T12:14:28;98351.19;;;20.70;49.55
68941;BME280;55982;51.476;7.552;2024-03-02T12:16:54;98345.47;;;21.27;48.67
68941;BME280;55982;51.476;7.552;2024-03-02T12:19:20;98346.34;;;21.53;48.33
68941;BME280;55982;51.476;7.552;2024-03-02T12:21:46;98342.16;;;20.63;49.24
68941;BME280;55982;51.476;7.552;2024-03-02T12:24:11;98347.31;;;20.00;50.54
68941;BME280;55982;51.476;7.552;2024-03-02T12:26:36;98334.34;;;19.42;53.35
68941;BME280;55982;51.476;7.552;2024-03-02T12:29:02;98340.03;;;20.02;52.44
68941;BME280;55982;51.476;7.552;2024-03-02T12:31:27;98339.22;;;19.27;53.72
68941;BME280;55982;51.476;7.552;2024-03-02T12:33:52;98343.78;;;18.68;54.96
68941;BME280;55982;51.476;7.552;2024-03-02T12:36:18;98345.63;;;18.27;56.93
68941;BME280;55982;51.476;7.552;2024-03-02T12:38:43;98346.78;;;17.74;59.50
68941;BME280;55982;51.476;7.552;2024-03-02T12:41:09;98347.81;;;17.21;60.23
68941;BME280;55982;51.476;7.552;2024-03-02T12:43:34;98344.75;;;17.05;64.93
68941;BME280;55982;51.476;7.552;2024-03-02T12:45:59;98345.75;;;17.04;64.13
68941;BME280;55982;51.476;7.552;2024-03-02T12:48:25;98337.66;;;16.74;64.90
68941;BME280;55982;51.476;7.552;2024-03-02T12:50:50;98337.75;;;16.29;71.43
68941;BME280;55982;51.476;7.552;2024-03-02T12:53:16;98339.19;;;16.56;73.41
68941;BME280;55982;51.476;7.552;2024-03-02T12:55:44;98330.97;;;16.70;70.94
68941;BME280;55982;51.476;7.552;2024-03-02T12:58:16;98329.97;;;16.50;73.47
68941;BME280;55982;51.476;7.552;2024-03-02T13:00:41;98321.69;;;16.32;71.95
68941;BME280;55982;51.476;7.552;2024-03-02T13:03:06;98321.44;;;16.24;75.60
68941;BME280;55982;51.476;7.552;2024-03-02T13:05:32;98322.41;;;16.23;74.01